sensor_id;sensor_type;location;lat;lon;timestamp;temperature;humidity
21672;DHT22;10997;52.242;8.168;2023-05-07T00:02:53;13.20;99.90
21672;DHT22;10997;52.242;8.168;2023-05-07T00:07:53;13.10;99.90
21672;DHT22;10997;52.242;8.168;2023-05-07T00:12:54;13.10;99.90
21672;DHT22;10997;52.242;8.168;2023-05-07T00:17:55;13.10;99.90
21672;DHT22;10997;52.242;8.168;2023-05-07T00:22:56;13.00;99.90
21672;DHT22;10997;52.242;8.168;2023-05-07T00:27:56;13.00;99.90
21672;DHT22;10997;52.242;8.168;2023-05-07T00:33:02;12.90;99.90
21672;DHT22;10997;52.242;8.168;2023-05-07T00:38:03;12.70;99.90
21672;DHT22;10997;52.242;8.168;2023-05-07T00:43:04;12.60;99.90
21672;DHT22;10997;52.242;8.168;2023-05-07T00:48:04;12.60;99.90
21672;DHT22;10997;52.242;8.168;2023-05-07T00:53:06;12.50;99.90
21672;DHT22;10997;52.242;8.168;2023-05-07T00:58:07;12.50;99.90
21672;DHT22;10997;52.242;8.168;2023-05-07T01:03:07;12.40;99.90
21672;DHT22;10997;52.242;8.168;2023-05-07T01:08:08;12.40;99.90
21672;DHT22;10997;52.242;8.168;2023-05-07T01:13:10;12.40;99.90
21672;DHT22;10997;52.242;8.168;2023-05-07T01:18:11;12.40;99.90
21672;DHT22;10997;52.242;8.168;2023-05-07T01:23:11;12.40;99.90
21672;DHT22;10997;52.242;8.168;2023-05-07T01:28:12;12.30;99.90
21672;DHT22;10997;52.242;8.168;2023-05-07T01:33:15;12.30;99.90
21672;DHT22;10997;52.242;8.168;2023-05-07T01:38:17;12.20;99.90
21672;DHT22;10997;52.242;8.168;2023-05-07T01:43:18;12.20;99.90
21672;DHT22;10997;52.242;8.168;2023-05-07T01:48:19;12.10;99.90
21672;DHT22;10997;52.242;8.168;2023-05-07T01:53:20;12.10;99.90
21672;DHT22;10997;52.242;8.168;2023-05-07T01:58:21;12.10;99.90
21672;DHT22;10997;52.242;8.168;2023-05-07T02:03:21;12.10;99.90
21672;DHT22;10997;52.242;8.168;2023-05-07T02:08:22;12.00;99.90
21672;DHT22;10997;52.242;8.168;2023-05-07T02:13:23;11.90;99.90
21672;DHT22;10997;52.242;8.168;2023-05-07T02:18:25;11.90;99.90
21672;DHT22;10997;52.242;8.168;2023-05-07T02:23:25;11.90;99.90
21672;DHT22;10997;52.242;8.168;2023-05-07T02:28:26;11.90;99.90
21672;DHT22;10997;52.242;8.168;2023-05-07T02:33:26;11.90;99.90
21672;DHT22;10997;52.242;8.168;2023-05-07T02:38:27;11.90;99.90
21672;DHT22;10997;52.242;8.168;2023-05-07T02:43:28;11.90;99.90
21672;DHT22;10997;52.242;8.168;2023-05-07T02:48:29;11.80;99.90
21672;DHT22;10997;52.242;8.168;2023-05-07T02:53:29;11.80;99.90
21672;DHT22;10997;52.242;8.168;2023-05-07T02:58:30;11.80;99.90
21672;DHT22;10997;52.242;8.168;2023-05-07T03:03:31;11.80;99.90
21672;DHT22;10997;52.242;8.168;2023-05-07T03:08:32;11.70;99.90
21672;DHT22;10997;52.242;8.168;2023-05-07T03:13:32;11.70;99.90
21672;DHT22;10997;52.242;8.168;2023-05-07T03:18:33;11.60;99.90
21672;DHT22;10997;52.242;8.168;2023-05-07T03:23:34;11.60;99.90
21672;DHT22;10997;52.242;8.168;2023-05-07T03:28:34;11.50;99.90
21672;DHT22;10997;52.242;8.168;2023-05-07T03:33:35;11.50;99.90
21672;DHT22;10997;52.242;8.168;2023-05-07T03:38:39;11.40;99.90
21672;DHT22;10997;52.242;8.168;2023-05-07T03:43:40;11.30;99.90
21672;DHT22;10997;52.242;8.168;2023-05-07T03:48:40;11.40;99.90
21672;DHT22;10997;52.242;8.168;2023-05-07T03:53:41;11.30;99.90
21672;DHT22;10997;52.242;8.168;2023-05-07T03:58:41;11.30;99.90
21672;DHT22;10997;52.242;8.168;2023-05-07T04:03:42;11.30;99.90
21672;DHT22;10997;52.242;8.168;2023-05-07T04:08:43;11.30;99.90
21672;DHT22;10997;52.242;8.168;2023-05-07T04:13:43;11.30;99.90
21672;DHT22;10997;52.242;8.168;2023-05-07T04:18:44;11.30;99.90
21672;DHT22;10997;52.242;8.168;2023-05-07T04:23:47;11.20;99.90
21672;DHT22;10997;52.242;8.168;2023-05-07T04:28:47;11.20;99.90
21672;DHT22;10997;52.242;8.168;2023-05-07T04:33:48;11.20;99.90
21672;DHT22;10997;52.242;8.168;2023-05-07T04:38:49;11.30;99.90
21672;DHT22;10997;52.242;8.168;2023-05-07T04:43:49;11.30;99.90
21672;DHT22;10997;52.242;8.168;2023-05-07T04:48:51;11.40;99.90
21672;DHT22;10997;52.242;8.168;2023-05-07T04:53:51;11.40;99.90
21672;DHT22;10997;52.242;8.168;2023-05-07T04:58:52;11.40;99.90
21672;DHT22;10997;52.242;8.168;2023-05-07T05:03:52;11.50;99.90
21672;DHT22;10997;52.242;8.168;2023-05-07T05:08:53;11.60;99.90
21672;DHT22;10997;52.242;8.168;2023-05-07T05:13:53;11.60;99.90
21672;DHT22;10997;52.242;8.168;2023-05-07T05:18:54;11.70;99.90
21672;DHT22;10997;52.242;8.168;2023-05-07T05:23:55;11.70;99.90
21672;DHT22;10997;52.242;8.168;2023-05-07T05:28:55;11.80;99.90
21672;DHT22;10997;52.242;8.168;2023-05-07T05:33:56;11.90;99.90
21672;DHT22;10997;52.242;8.168;2023-05-07T05:38:56;12.10;99.90
21672;DHT22;10997;52.242;8.168;2023-05-07T05:43:57;12.20;99.90
21672;DHT22;10997;52.242;8.168;2023-05-07T05:48:57;12.40;99.90
21672;DHT22;10997;52.242;8.168;2023-05-07T05:53:58;12.50;99.90
21672;DHT22;10997;52.242;8.168;2023-05-07T05:58:59;12.70;99.90
21672;DHT22;10997;52.242;8.168;2023-05-07T06:03:59;12.70;99.90
21672;DHT22;10997;52.242;8.168;2023-05-07T06:09:06;12.80;99.90
21672;DHT22;10997;52.242;8.168;2023-05-07T06:14:07;12.70;99.90
21672;DHT22;10997;52.242;8.168;2023-05-07T06:19:07;12.70;99.90
21672;DHT22;10997;52.242;8.168;2023-05-07T06:24:08;12.60;99.90
21672;DHT22;10997;52.242;8.168;2023-05-07T06:29:09;12.60;99.90
21672;DHT22;10997;52.242;8.168;2023-05-07T06:34:09;12.60;99.90
21672;DHT22;10997;52.242;8.168;2023-05-07T06:39:14;12.70;99.90
21672;DHT22;10997;52.242;8.168;2023-05-07T06:44:14;12.70;99.90
21672;DHT22;10997;52.242;8.168;2023-05-07T06:49:15;12.80;99.90
21672;DHT22;10997;52.242;8.168;2023-05-07T06:54:16;13.00;99.90
21672;DHT22;10997;52.242;8.168;2023-05-07T06:59:16;13.10;99.90
21672;DHT22;10997;52.242;8.168;2023-05-07T07:04:17;13.10;99.90
21672;DHT22;10997;52.242;8.168;2023-05-07T07:09:17;13.40;99.90
21672;DHT22;10997;52.242;8.168;2023-05-07T07:14:18;13.50;99.90
21672;DHT22;10997;52.242;8.168;2023-05-07T07:19:19;13.70;99.90
21672;DHT22;10997;52.242;8.168;2023-05-07T07:24:20;13.80;99.90
21672;DHT22;10997;52.242;8.168;2023-05-07T07:29:21;13.90;99.90
21672;DHT22;10997;52.242;8.168;2023-05-07T07:34:22;14.00;99.90
21672;DHT22;10997;52.242;8.168;2023-05-07T07:39:22;14.10;99.90
21672;DHT22;10997;52.242;8.168;2023-05-07T07:44:23;14.30;99.90
21672;DHT22;10997;52.242;8.168;2023-05-07T07:49:23;14.40;99.90
21672;DHT22;10997;52.242;8.168;2023-05-07T07:54:24;14.50;99.90
21672;DHT22;10997;52.242;8.168;2023-05-07T07:59:25;14.60;99.90
21672;DHT22;10997;52.242;8.168;2023-05-07T08:04:26;14.80;99.90
21672;DHT22;10997;52.242;8.168;2023-05-07T08:09:27;14.90;99.90
21672;DHT22;10997;52.242;8.168;2023-05-07T08:14:27;15.20;99.90
21672;DHT22;10997;52.242;8.168;2023-05-07T08:19:28;15.50;99.90
21672;DHT22;10997;52.242;8.168;2023-05-07T08:24:29;15.50;99.90
21672;DHT22;10997;52.242;8.168;2023-05-07T08:29:29;15.50;99.90
21672;DHT22;10997;52.242;8.168;2023-05-07T08:34:30;15.50;99.90
21672;DHT22;10997;52.242;8.168;2023-05-07T08:39:31;15.50;99.90
21672;DHT22;10997;52.242;8.168;2023-05-07T08:44:33;15.80;99.90
21672;DHT22;10997;52.242;8.168;2023-05-07T08:49:35;16.30;99.90
21672;DHT22;10997;52.242;8.168;2023-05-07T08:54:37;16.50;99.90
21672;DHT22;10997;52.242;8.168;2023-05-07T08:59:39;16.60;99.90
21672;DHT22;10997;52.242;8.168;2023-05-07T09:04:40;16.70;99.90
21672;DHT22;10997;52.242;8.168;2023-05-07T09:09:41;16.70;99.90
21672;DHT22;10997;52.242;8.168;2023-05-07T09:14:41;16.90;99.90
21672;DHT22;10997;52.242;8.168;2023-05-07T09:19:46;17.40;99.90
21672;DHT22;10997;52.242;8.168;2023-05-07T09:24:48;17.90;99.90
21672;DHT22;10997;52.242;8.168;2023-05-07T09:29:50;17.90;99.90
21672;DHT22;10997;52.242;8.168;2023-05-07T09:34:50;17.70;99.90
21672;DHT22;10997;52.242;8.168;2023-05-07T09:39:51;17.70;99.90
21672;DHT22;10997;52.242;8.168;2023-05-07T09:44:52;17.80;99.90
21672;DHT22;10997;52.242;8.168;2023-05-07T09:49:57;17.90;99.90
21672;DHT22;10997;52.242;8.168;2023-05-07T09:55:00;18.30;99.90
21672;DHT22;10997;52.242;8.168;2023-05-07T10:00:02;18.60;99.90
21672;DHT22;10997;52.242;8.168;2023-05-07T10:05:06;18.70;99.90
21672;DHT22;10997;52.242;8.168;2023-05-07T10:10:09;18.80;99.90
21672;DHT22;10997;52.242;8.168;2023-05-07T10:15:10;18.90;99.90
21672;DHT22;10997;52.242;8.168;2023-05-07T10:20:11;19.10;99.90
21672;DHT22;10997;52.242;8.168;2023-05-07T10:25:19;19.40;99.90
21672;DHT22;10997;52.242;8.168;2023-05-07T10:30:46;19.50;99.90
21672;DHT22;10997;52.242;8.168;2023-05-07T10:35:49;19.70;99.90
21672;DHT22;10997;52.242;8.168;2023-05-07T10:40:50;20.00;99.90
21672;DHT22;10997;52.242;8.168;2023-05-07T10:51:21;20.10;99.90
21672;DHT22;10997;52.242;8.168;2023-05-07T11:01:49;20.10;99.90
21672;DHT22;10997;52.242;8.168;2023-05-07T11:07:26;19.90;99.90
21672;DHT22;10997;52.242;8.168;2023-05-07T11:22:53;20.60;99.90
21672;DHT22;10997;52.242;8.168;2023-05-07T11:27:55;20.90;99.90
21672;DHT22;10997;52.242;8.168;2023-05-07T11:32:58;20.80;99.90
21672;DHT22;10997;52.242;8.168;2023-05-07T11:38:00;20.60;99.90
21672;DHT22;10997;52.242;8.168;2023-05-07T11:43:10;21.10;99.90
21672;DHT22;10997;52.242;8.168;2023-05-07T11:48:12;20.90;99.90
21672;DHT22;10997;52.242;8.168;2023-05-07T11:53:13;21.00;99.90
21672;DHT22;10997;52.242;8.168;2023-05-07T11:58:20;21.00;99.90
21672;DHT22;10997;52.242;8.168;2023-05-07T12:03:21;21.20;99.90
21672;DHT22;10997;52.242;8.168;2023-05-07T12:08:22;21.10;99.90
21672;DHT22;10997;52.242;8.168;2023-05-07T12:13:26;21.20;99.90
21672;DHT22;10997;52.242;8.168;2023-05-07T12:18:26;21.00;99.90
21672;DHT22;10997;52.242;8.168;2023-05-07T12:23:28;21.30;99.90
21672;DHT22;10997;52.242;8.168;2023-05-07T12:28:29;21.40;99.90
21672;DHT22;10997;52.242;8.168;2023-05-07T12:33:31;21.70;99.90
21672;DHT22;10997;52.242;8.168;2023-05-07T12:38:39;21.40;99.90
21672;DHT22;10997;52.242;8.168;2023-05-07T12:43:44;21.20;99.90
21672;DHT22;10997;52.242;8.168;2023-05-07T12:48:45;21.20;99.90
21672;DHT22;10997;52.242;8.168;2023-05-07T12:53:48;21.30;99.90
21672;DHT22;10997;52.242;8.168;2023-05-07T12:58:49;22.00;99.90
21672;DHT22;10997;52.242;8.168;2023-05-07T13:03:49;21.80;99.90
21672;DHT22;10997;52.242;8.168;2023-05-07T13:08:52;22.30;99.90
21672;DHT22;10997;52.242;8.168;2023-05-07T13:13:52;22.30;99.90
21672;DHT22;10997;52.242;8.168;2023-05-07T13:18:53;21.90;99.90
21672;DHT22;10997;52.242;8.168;2023-05-07T13:23:53;22.20;99.90
21672;DHT22;10997;52.242;8.168;2023-05-07T13:28:54;21.90;99.90
21672;DHT22;10997;52.242;8.168;2023-05-07T13:33:54;21.30;99.90
21672;DHT22;10997;52.242;8.168;2023-05-07T13:38:56;21.30;99.90
21672;DHT22;10997;52.242;8.168;2023-05-07T13:43:59;21.40;99.90
21672;DHT22;10997;52.242;8.168;2023-05-07T13:49:00;21.50;99.90
21672;DHT22;10997;52.242;8.168;2023-05-07T13:54:00;21.80;99.90
21672;DHT22;10997;52.242;8.168;2023-05-07T13:59:01;21.70;99.90
21672;DHT22;10997;52.242;8.168;2023-05-07T14:04:02;21.70;99.90
21672;DHT22;10997;52.242;8.168;2023-05-07T14:09:03;21.80;99.90
21672;DHT22;10997;52.242;8.168;2023-05-07T14:14:04;21.80;99.90
21672;DHT22;10997;52.242;8.168;2023-05-07T14:19:04;22.10;99.90
21672;DHT22;10997;52.242;8.168;2023-05-07T14:24:06;22.10;99.90
21672;DHT22;10997;52.242;8.168;2023-05-07T14:29:08;22.10;99.90
21672;DHT22;10997;52.242;8.168;2023-05-07T14:34:08;22.10;99.90
21672;DHT22;10997;52.242;8.168;2023-05-07T14:39:09;21.80;99.90
21672;DHT22;10997;52.242;8.168;2023-05-07T14:44:09;21.50;99.90
21672;DHT22;10997;52.242;8.168;2023-05-07T14:49:10;21.20;99.90
21672;DHT22;10997;52.242;8.168;2023-05-07T14:54:17;21.00;99.90
21672;DHT22;10997;52.242;8.168;2023-05-07T14:59:18;20.80;99.90
21672;DHT22;10997;52.242;8.168;2023-05-07T15:04:21;20.80;99.90
21672;DHT22;10997;52.242;8.168;2023-05-07T15:09:21;20.70;99.90
21672;DHT22;10997;52.242;8.168;2023-05-07T15:14:22;20.70;99.90
21672;DHT22;10997;52.242;8.168;2023-05-07T15:19:23;20.50;99.90
21672;DHT22;10997;52.242;8.168;2023-05-07T15:24:25;20.50;99.90
21672;DHT22;10997;52.242;8.168;2023-05-07T15:29:27;20.50;99.90
21672;DHT22;10997;52.242;8.168;2023-05-07T15:34:27;20.30;99.90
21672;DHT22;10997;52.242;8.168;2023-05-07T15:39:28;20.20;99.90
21672;DHT22;10997;52.242;8.168;2023-05-07T15:44:28;20.20;99.90
21672;DHT22;10997;52.242;8.168;2023-05-07T15:49:30;20.10;99.90
21672;DHT22;10997;52.242;8.168;2023-05-07T15:54:32;20.20;99.90
21672;DHT22;10997;52.242;8.168;2023-05-07T15:59:32;20.00;99.90
21672;DHT22;10997;52.242;8.168;2023-05-07T16:04:34;20.10;99.90
21672;DHT22;10997;52.242;8.168;2023-05-07T16:09:35;20.00;99.90
21672;DHT22;10997;52.242;8.168;2023-05-07T16:14:36;19.80;99.90
21672;DHT22;10997;52.242;8.168;2023-05-07T16:19:36;19.60;99.90
21672;DHT22;10997;52.242;8.168;2023-05-07T16:24:37;19.50;99.90
21672;DHT22;10997;52.242;8.168;2023-05-07T16:29:37;19.30;99.90
21672;DHT22;10997;52.242;8.168;2023-05-07T16:34:39;19.30;99.90
21672;DHT22;10997;52.242;8.168;2023-05-07T16:39:39;19.20;99.90
21672;DHT22;10997;52.242;8.168;2023-05-07T16:44:40;19.10;99.90
21672;DHT22;10997;52.242;8.168;2023-05-07T16:49:41;19.00;99.90
21672;DHT22;10997;52.242;8.168;2023-05-07T16:54:41;18.80;99.90
21672;DHT22;10997;52.242;8.168;2023-05-07T16:59:42;18.80;99.90
21672;DHT22;10997;52.242;8.168;2023-05-07T17:04:42;18.60;99.90
21672;DHT22;10997;52.242;8.168;2023-05-07T17:09:43;18.50;99.90
21672;DHT22;10997;52.242;8.168;2023-05-07T17:14:44;18.50;99.90
21672;DHT22;10997;52.242;8.168;2023-05-07T17:19:44;18.40;99.90
21672;DHT22;10997;52.242;8.168;2023-05-07T17:24:45;18.10;99.90
21672;DHT22;10997;52.242;8.168;2023-05-07T17:29:46;18.00;99.90
21672;DHT22;10997;52.242;8.168;2023-05-07T17:34:46;17.80;99.90
21672;DHT22;10997;52.242;8.168;2023-05-07T17:39:47;17.70;99.90
21672;DHT22;10997;52.242;8.168;2023-05-07T17:44:48;17.50;99.90
21672;DHT22;10997;52.242;8.168;2023-05-07T17:49:48;17.50;99.90
21672;DHT22;10997;52.242;8.168;2023-05-07T17:54:49;17.30;99.90
21672;DHT22;10997;52.242;8.168;2023-05-07T17:59:50;17.10;99.90
21672;DHT22;10997;52.242;8.168;2023-05-07T18:04:50;16.80;99.90
21672;DHT22;10997;52.242;8.168;2023-05-07T18:09:51;16.60;99.90
21672;DHT22;10997;52.242;8.168;2023-05-07T18:14:52;16.50;99.90
21672;DHT22;10997;52.242;8.168;2023-05-07T18:19:52;16.30;99.90
21672;DHT22;10997;52.242;8.168;2023-05-07T18:24:53;16.10;99.90
21672;DHT22;10997;52.242;8.168;2023-05-07T18:29:55;15.80;99.90
21672;DHT22;10997;52.242;8.168;2023-05-07T18:34:55;15.60;99.90
21672;DHT22;10997;52.242;8.168;2023-05-07T18:39:56;15.50;99.90
21672;DHT22;10997;52.242;8.168;2023-05-07T18:44:57;15.30;99.90
21672;DHT22;10997;52.242;8.168;2023-05-07T18:49:58;15.10;99.90
21672;DHT22;10997;52.242;8.168;2023-05-07T18:55:00;14.90;99.90
21672;DHT22;10997;52.242;8.168;2023-05-07T19:00:00;14.80;99.90
21672;DHT22;10997;52.242;8.168;2023-05-07T19:05:01;14.70;99.90
21672;DHT22;10997;52.242;8.168;2023-05-07T19:10:02;14.60;99.90
21672;DHT22;10997;52.242;8.168;2023-05-07T19:15:02;14.50;99.90
21672;DHT22;10997;52.242;8.168;2023-05-07T19:20:03;14.40;99.90
21672;DHT22;10997;52.242;8.168;2023-05-07T19:25:05;14.30;99.90
21672;DHT22;10997;52.242;8.168;2023-05-07T19:30:07;14.20;99.90
21672;DHT22;10997;52.242;8.168;2023-05-07T19:35:08;14.10;99.90
21672;DHT22;10997;52.242;8.168;2023-05-07T19:40:09;14.00;99.90
21672;DHT22;10997;52.242;8.168;2023-05-07T19:45:10;13.90;99.90
21672;DHT22;10997;52.242;8.168;2023-05-07T19:50:11;13.80;99.90
21672;DHT22;10997;52.242;8.168;2023-05-07T19:55:12;13.70;99.90
21672;DHT22;10997;52.242;8.168;2023-05-07T20:00:13;13.70;99.90
21672;DHT22;10997;52.242;8.168;2023-05-07T20:05:13;13.60;99.90
21672;DHT22;10997;52.242;8.168;2023-05-07T20:10:14;13.50;99.90
21672;DHT22;10997;52.242;8.168;2023-05-07T20:15:15;13.30;99.90
21672;DHT22;10997;52.242;8.168;2023-05-07T20:20:15;13.30;99.90
21672;DHT22;10997;52.242;8.168;2023-05-07T20:25:16;13.20;99.90
21672;DHT22;10997;52.242;8.168;2023-05-07T20:30:16;13.10;99.90
21672;DHT22;10997;52.242;8.168;2023-05-07T20:35:19;13.00;99.90
21672;DHT22;10997;52.242;8.168;2023-05-07T20:40:20;12.90;99.90
21672;DHT22;10997;52.242;8.168;2023-05-07T20:45:21;12.90;99.90
21672;DHT22;10997;52.242;8.168;2023-05-07T20:50:24;12.80;99.90
21672;DHT22;10997;52.242;8.168;2023-05-07T20:55:26;12.70;99.90
21672;DHT22;10997;52.242;8.168;2023-05-07T21:00:26;12.60;99.90
21672;DHT22;10997;52.242;8.168;2023-05-07T21:05:27;12.50;99.90
21672;DHT22;10997;52.242;8.168;2023-05-07T21:10:29;12.40;99.90
21672;DHT22;10997;52.242;8.168;2023-05-07T21:15:29;12.40;99.90
21672;DHT22;10997;52.242;8.168;2023-05-07T21:20:30;12.30;99.90
21672;DHT22;10997;52.242;8.168;2023-05-07T21:25:30;12.20;99.90
21672;DHT22;10997;52.242;8.168;2023-05-07T21:30:31;12.10;99.90
21672;DHT22;10997;52.242;8.168;2023-05-07T21:35:31;12.00;99.90
21672;DHT22;10997;52.242;8.168;2023-05-07T21:40:32;11.90;99.90
21672;DHT22;10997;52.242;8.168;2023-05-07T21:45:33;11.80;99.90
21672;DHT22;10997;52.242;8.168;2023-05-07T21:50:33;11.80;99.90
21672;DHT22;10997;52.242;8.168;2023-05-07T21:55:34;11.70;99.90
21672;DHT22;10997;52.242;8.168;2023-05-07T22:00:34;11.70;99.90
21672;DHT22;10997;52.242;8.168;2023-05-07T22:05:35;11.60;99.90
21672;DHT22;10997;52.242;8.168;2023-05-07T22:10:36;11.50;99.90
21672;DHT22;10997;52.242;8.168;2023-05-07T22:15:38;11.50;99.90
21672;DHT22;10997;52.242;8.168;2023-05-07T22:20:38;11.50;99.90
21672;DHT22;10997;52.242;8.168;2023-05-07T22:25:39;11.40;99.90
21672;DHT22;10997;52.242;8.168;2023-05-07T22:30:40;11.40;99.90
21672;DHT22;10997;52.242;8.168;2023-05-07T22:35:41;11.30;99.90
21672;DHT22;10997;52.242;8.168;2023-05-07T22:40:41;11.30;99.90
21672;DHT22;10997;52.242;8.168;2023-05-07T22:45:42;11.20;99.90
21672;DHT22;10997;52.242;8.168;2023-05-07T22:50:42;11.10;99.90
21672;DHT22;10997;52.242;8.168;2023-05-07T22:55:43;11.10;99.90
21672;DHT22;10997;52.242;8.168;2023-05-07T23:00:44;11.00;99.90
21672;DHT22;10997;52.242;8.168;2023-05-07T23:05:46;11.00;99.90
21672;DHT22;10997;52.242;8.168;2023-05-07T23:10:46;10.90;99.90
21672;DHT22;10997;52.242;8.168;2023-05-07T23:15:47;10.90;99.90
21672;DHT22;10997;52.242;8.168;2023-05-07T23:20:48;10.90;99.90
21672;DHT22;10997;52.242;8.168;2023-05-07T23:25:51;10.80;99.90
21672;DHT22;10997;52.242;8.168;2023-05-07T23:30:52;10.80;99.90
21672;DHT22;10997;52.242;8.168;2023-05-07T23:36:00;10.80;99.90
21672;DHT22;10997;52.242;8.168;2023-05-07T23:41:00;10.80;99.90
21672;DHT22;10997;52.242;8.168;2023-05-07T23:46:01;10.60;99.90
21672;DHT22;10997;52.242;8.168;2023-05-07T23:51:02;10.60;99.90
21672;DHT22;10997;52.242;8.168;2023-05-07T23:56:02;10.60;99.90
